Time;durP1;ratioP1;P1;durP2;ratioP2;P2;SDS_P1;SDS_P2;PMS_P1;PMS_P2;Temp;Humidity;BMP_temperature;BMP_pressure;BME280_temperature;BME280_humidity;BME280_pressure;Samples;Min_cycle;Max_cycle;Signal;HPM_P1;HPM_P2
2023/04/09 19:23:30;;;;;;;405.70;331.23;;;;;;;;;;6153409;22;1529020;-86
2023/04/09 19:25:56;;;;;;;414.63;336.15;;;;;;;;;;6144056;23;20485;-79
2023/04/09 19:28:22;;;;;;;415.45;333.50;;;;;;;;;;6167874;23;20020;-88
2023/04/09 19:30:52;;;;;;;409.02;330.40;;;;;;;;;;6168616;23;20029;-84
2023/04/09 19:33:22;;;;;;;411.77;330.75;;;;;;;;;;6142780;23;20441;-88
2023/04/09 19:35:48;;;;;;;416.23;327.17;;;;;;;;;;6170971;23;20063;-85
2023/04/09 19:38:15;;;;;;;411.88;331.02;;;;;;;;;;6148044;23;20539;-94
2023/04/09 19:40:41;;;;;;;412.38;329.40;;;;;;;;;;6170538;23;20355;-83
2023/04/09 19:43:07;;;;;;;414.65;326.13;;;;;;;;;;6169060;23;20079;-84
2023/04/09 19:45:33;;;;;;;413.77;321.42;;;;;;;;;;6166479;23;20071;-85
2023/04/09 19:47:59;;;;;;;424.10;323.08;;;;;;;;;;6159511;23;20053;-85
2023/04/09 19:50:26;;;;;;;429.40;323.30;;;;;;;;;;6189000;23;20025;-82
2023/04/09 19:52:52;;;;;;;422.92;318.45;;;;;;;;;;6179320;23;20084;-79
2023/04/09 19:55:18;;;;;;;421.52;317.63;;;;;;;;;;6177700;23;20036;-82
2023/04/09 19:57:45;;;;;;;411.67;313.48;;;;;;;;;;6179143;23;20569;-83
2023/04/09 20:00:11;;;;;;;415.95;312.10;;;;;;;;;;6174751;23;20013;-79
2023/04/09 20:02:38;;;;;;;428.92;320.60;;;;;;;;;;6167502;23;20025;-80
2023/04/09 20:05:04;;;;;;;423.67;311.83;;;;;;;;;;6171361;23;20025;-91
2023/04/09 20:07:31;;;;;;;416.27;305.92;;;;;;;;;;6182737;23;20036;-89
2023/04/09 20:09:57;;;;;;;422.75;309.25;;;;;;;;;;6150916;23;20024;-90
2023/04/09 20:12:28;;;;;;;410.90;297.48;;;;;;;;;;6173857;23;20025;-91
2023/04/09 20:14:54;;;;;;;429.25;309.05;;;;;;;;;;6174294;23;20017;-88
2023/04/09 20:17:20;;;;;;;422.55;306.60;;;;;;;;;;6173576;23;20052;-89
2023/04/09 20:19:46;;;;;;;420.60;302.52;;;;;;;;;;6175332;23;20017;-93
2023/04/09 20:22:15;;;;;;;427.55;304.00;;;;;;;;;;6179923;23;20470;-87
2023/04/09 20:24:47;;;;;;;419.33;299.67;;;;;;;;;;6171316;23;20107;-94
2023/04/09 20:27:13;;;;;;;404.42;287.55;;;;;;;;;;6189460;23;20017;-95
2023/04/09 20:29:39;;;;;;;408.23;291.10;;;;;;;;;;6180334;23;20024;-94
2023/04/09 20:32:05;;;;;;;416.25;293.38;;;;;;;;;;6175815;23;20028;-94
2023/04/09 20:34:31;;;;;;;422.65;296.40;;;;;;;;;;6175126;23;20076;-87
2023/04/09 20:36:58;;;;;;;417.23;296.65;;;;;;;;;;6171917;23;20024;-84
2023/04/09 20:39:25;;;;;;;413.42;289.48;;;;;;;;;;6170306;23;20092;-87
2023/04/09 20:41:52;;;;;;;419.88;293.83;;;;;;;;;;6147202;23;20020;-88
2023/04/09 20:44:18;;;;;;;416.27;292.33;;;;;;;;;;6143249;23;20017;-89
2023/04/09 20:46:44;;;;;;;416.80;290.33;;;;;;;;;;6167250;23;20063;-88
2023/04/09 20:49:11;;;;;;;414.48;289.45;;;;;;;;;;6167087;23;20013;-90
2023/04/09 20:51:37;;;;;;;409.95;292.58;;;;;;;;;;6141227;23;20070;-91
2023/04/09 20:54:03;;;;;;;401.67;286.35;;;;;;;;;;6165846;23;20099;-90
2023/04/09 20:56:32;;;;;;;394.65;282.58;;;;;;;;;;6167232;23;20524;-90
2023/04/09 20:58:58;;;;;;;399.52;281.17;;;;;;;;;;6168218;23;20021;-85
2023/04/09 21:01:26;;;;;;;402.60;284.45;;;;;;;;;;6168359;23;20151;-89
2023/04/09 21:03:52;;;;;;;395.23;280.75;;;;;;;;;;6167150;23;20013;-90
2023/04/09 21:06:18;;;;;;;393.42;279.35;;;;;;;;;;6169496;23;20063;-92
2023/04/09 21:08:44;;;;;;;399.88;282.17;;;;;;;;;;6170221;23;20517;-87
2023/04/09 21:11:11;;;;;;;397.55;277.48;;;;;;;;;;6169898;23;20043;-87
2023/04/09 21:13:37;;;;;;;402.08;284.23;;;;;;;;;;6168610;23;20023;-87
2023/04/09 21:16:03;;;;;;;393.83;274.65;;;;;;;;;;6144322;23;20020;-91
2023/04/09 21:18:29;;;;;;;393.15;277.30;;;;;;;;;;6169740;23;20017;-87
2023/04/09 21:21:01;;;;;;;398.50;274.83;;;;;;;;;;6146380;23;20808;-87
2023/04/09 21:23:27;;;;;;;392.95;269.92;;;;;;;;;;6168471;23;20571;-85
2023/04/09 21:25:53;;;;;;;390.95;266.33;;;;;;;;;;6144127;23;20056;-88
2023/04/09 21:28:19;;;;;;;389.80;273.65;;;;;;;;;;6142533;23;20021;-91
2023/04/09 21:30:45;;;;;;;394.38;270.55;;;;;;;;;;6118024;23;20021;-84
2023/04/09 21:33:12;;;;;;;391.45;270.75;;;;;;;;;;6141046;23;20021;-86
2023/04/09 21:35:38;;;;;;;397.05;272.02;;;;;;;;;;6120280;23;20028;-85
2023/04/09 21:38:04;;;;;;;410.85;280.20;;;;;;;;;;6146080;23;20040;-85
2023/04/09 21:40:31;;;;;;;390.30;263.88;;;;;;;;;;6145865;23;20334;-89
2023/04/09 21:42:57;;;;;;;381.33;264.40;;;;;;;;;;6120650;23;20031;-91
2023/04/09 21:45:23;;;;;;;381.05;262.85;;;;;;;;;;6145352;23;20056;-91
2023/04/09 21:47:49;;;;;;;387.35;266.00;;;;;;;;;;6145292;23;20498;-88
2023/04/09 21:50:15;;;;;;;384.38;260.67;;;;;;;;;;6145780;23;20053;-90
2023/04/09 21:52:42;;;;;;;404.17;272.30;;;;;;;;;;6144345;23;20052;-88
2023/04/09 21:55:09;;;;;;;384.13;261.90;;;;;;;;;;6143262;23;20086;-87
2023/04/09 21:57:35;;;;;;;386.13;266.52;;;;;;;;;;6143460;23;20024;-88
2023/04/09 22:00:02;;;;;;;387.15;262.25;;;;;;;;;;6148083;23;20017;-87
2023/04/09 22:02:28;;;;;;;370.42;255.88;;;;;;;;;;6118676;23;20021;-86
2023/04/09 22:04:54;;;;;;;378.52;258.55;;;;;;;;;;6143811;23;20021;-81
2023/04/09 22:07:20;;;;;;;369.92;256.60;;;;;;;;;;6143040;23;20020;-89
2023/04/09 22:09:46;;;;;;;379.25;255.43;;;;;;;;;;6143036;23;20025;-88
2023/04/09 22:12:12;;;;;;;372.75;254.40;;;;;;;;;;6144113;23;20017;-88
2023/04/09 22:14:39;;;;;;;371.25;253.23;;;;;;;;;;6119343;23;20092;-88
2023/04/09 22:17:05;;;;;;;380.60;252.93;;;;;;;;;;6142357;23;20017;-86
2023/04/09 22:19:33;;;;;;;369.77;249.88;;;;;;;;;;6143884;23;20326;-88
2023/04/09 22:21:59;;;;;;;369.92;248.93;;;;;;;;;;6144204;23;20017;-88
2023/04/09 22:24:27;;;;;;;372.33;244.52;;;;;;;;;;6170160;23;20048;-86
2023/04/09 22:26:53;;;;;;;384.63;256.67;;;;;;;;;;6140460;23;20179;-84
2023/04/09 22:29:20;;;;;;;381.65;250.90;;;;;;;;;;6141419;23;20420;-79
2023/04/09 22:31:46;;;;;;;402.98;260.17;;;;;;;;;;6163981;23;20345;-79
2023/04/09 22:34:12;;;;;;;401.85;252.57;;;;;;;;;;6137187;23;20121;-79
2023/04/09 22:36:38;;;;;;;387.55;246.40;;;;;;;;;;6169676;23;20029;-81
2023/04/09 22:39:04;;;;;;;404.25;256.42;;;;;;;;;;6135085;23;20281;-80
2023/04/09 22:41:30;;;;;;;389.38;242.38;;;;;;;;;;6136504;23;20060;-80
2023/04/09 22:43:57;;;;;;;393.17;245.23;;;;;;;;;;6143687;23;20021;-81
2023/04/09 22:46:24;;;;;;;393.42;243.00;;;;;;;;;;6144217;23;20017;-80
2023/04/09 22:48:50;;;;;;;386.85;239.55;;;;;;;;;;6143740;23;20021;-81
2023/04/09 22:51:16;;;;;;;383.70;235.57;;;;;;;;;;6144030;23;20021;-81
2023/04/09 22:53:42;;;;;;;389.58;238.18;;;;;;;;;;6143903;23;20078;-80
2023/04/09 22:56:08;;;;;;;383.10;238.88;;;;;;;;;;6144269;23;20035;-76
2023/04/09 22:58:35;;;;;;;386.90;237.65;;;;;;;;;;6171955;23;20475;-76
2023/04/09 23:01:05;;;;;;;382.80;235.63;;;;;;;;;;6144820;23;20087;-75
2023/04/09 23:03:31;;;;;;;385.17;235.90;;;;;;;;;;6145349;23;20017;-76
2023/04/09 23:05:57;;;;;;;391.00;237.55;;;;;;;;;;6144857;23;20032;-76
2023/04/09 23:08:23;;;;;;;402.77;238.95;;;;;;;;;;6120952;23;20155;-76
2023/04/09 23:10:49;;;;;;;387.85;233.95;;;;;;;;;;6145228;23;20024;-75
2023/04/09 23:13:16;;;;;;;389.10;233.30;;;;;;;;;;6171927;23;20017;-75
2023/04/09 23:15:43;;;;;;;385.48;232.25;;;;;;;;;;6120359;23;20021;-76
2023/04/09 23:18:09;;;;;;;393.13;231.45;;;;;;;;;;6145909;23;20397;-76
2023/04/09 23:20:35;;;;;;;397.65;235.43;;;;;;;;;;6144876;23;20033;-75
2023/04/09 23:23:01;;;;;;;391.80;231.68;;;;;;;;;;6145906;23;20029;-75
2023/04/09 23:25:28;;;;;;;395.92;229.52;;;;;;;;;;6165550;23;20029;-75
2023/04/09 23:27:54;;;;;;;397.88;230.82;;;;;;;;;;6170400;23;20456;-76
2023/04/09 23:30:20;;;;;;;398.13;235.20;;;;;;;;;;6144603;23;20704;-75
2023/04/09 23:32:47;;;;;;;402.65;233.15;;;;;;;;;;6170686;23;20024;-76
2023/04/09 23:35:13;;;;;;;403.38;233.77;;;;;;;;;;6170098;23;20028;-76
2023/04/09 23:37:40;;;;;;;399.48;232.85;;;;;;;;;;6170558;23;20028;-77
2023/04/09 23:40:06;;;;;;;398.40;237.93;;;;;;;;;;6169637;23;20128;-77
2023/04/09 23:42:32;;;;;;;390.80;230.50;;;;;;;;;;6170090;23;20016;-77
2023/04/09 23:45:02;;;;;;;393.33;228.85;;;;;;;;;;6170533;23;20460;-76
2023/04/09 23:47:30;;;;;;;389.70;227.10;;;;;;;;;;6169321;23;20472;-77
2023/04/09 23:49:56;;;;;;;402.85;232.38;;;;;;;;;;6166539;23;20027;-77
2023/04/09 23:52:22;;;;;;;391.33;227.57;;;;;;;;;;6168260;23;20021;-77
2023/04/09 23:54:50;;;;;;;401.88;232.20;;;;;;;;;;6169340;23;20021;-78
2023/04/09 23:57:16;;;;;;;400.17;235.55;;;;;;;;;;6167032;23;20017;-75
2023/04/09 23:59:42;;;;;;;385.38;227.15;;;;;;;;;;6167756;23;20484;-77
